sensor_id;sensor_type;location;lat;lon;timestamp;P1;durP1;ratioP1;P2;durP2;ratioP2
20069;SDS011;10195;50.868;4.382;2023-07-20T00:02:23;9.13;;;3.10;;
20069;SDS011;10195;50.868;4.382;2023-07-20T00:04:49;5.53;;;2.78;;
20069;SDS011;10195;50.868;4.382;2023-07-20T00:07:14;11.50;;;2.50;;
20069;SDS011;10195;50.868;4.382;2023-07-20T00:09:40;10.38;;;3.05;;
20069;SDS011;10195;50.868;4.382;2023-07-20T00:12:06;10.98;;;3.30;;
20069;SDS011;10195;50.868;4.382;2023-07-20T00:14:32;11.90;;;3.28;;
20069;SDS011;10195;50.868;4.382;2023-07-20T00:16:58;13.40;;;3.58;;
20069;SDS011;10195;50.868;4.382;2023-07-20T00:19:24;10.63;;;3.22;;
20069;SDS011;10195;50.868;4.382;2023-07-20T00:21:50;12.45;;;4.30;;
20069;SDS011;10195;50.868;4.382;2023-07-20T00:24:17;5.78;;;3.10;;
20069;SDS011;10195;50.868;4.382;2023-07-20T00:26:43;7.68;;;2.97;;
20069;SDS011;10195;50.868;4.382;2023-07-20T00:29:09;9.88;;;3.55;;
20069;SDS011;10195;50.868;4.382;2023-07-20T00:31:35;9.38;;;3.65;;
20069;SDS011;10195;50.868;4.382;2023-07-20T00:34:02;10.32;;;3.60;;
20069;SDS011;10195;50.868;4.382;2023-07-20T00:36:28;8.95;;;3.30;;
20069;SDS011;10195;50.868;4.382;2023-07-20T00:38:54;7.53;;;3.00;;
20069;SDS011;10195;50.868;4.382;2023-07-20T00:41:19;6.47;;;3.30;;
20069;SDS011;10195;50.868;4.382;2023-07-20T00:43:45;10.77;;;3.67;;
20069;SDS011;10195;50.868;4.382;2023-07-20T00:46:11;9.00;;;3.35;;
20069;SDS011;10195;50.868;4.382;2023-07-20T00:48:37;8.20;;;3.42;;
20069;SDS011;10195;50.868;4.382;2023-07-20T00:51:03;8.73;;;2.95;;
20069;SDS011;10195;50.868;4.382;2023-07-20T00:53:29;14.93;;;3.50;;
20069;SDS011;10195;50.868;4.382;2023-07-20T00:55:55;21.52;;;3.83;;
20069;SDS011;10195;50.868;4.382;2023-07-20T00:58:21;10.48;;;3.40;;
20069;SDS011;10195;50.868;4.382;2023-07-20T01:00:48;8.55;;;3.33;;
20069;SDS011;10195;50.868;4.382;2023-07-20T01:03:14;11.52;;;3.38;;
20069;SDS011;10195;50.868;4.382;2023-07-20T01:05:48;6.70;;;3.38;;
20069;SDS011;10195;50.868;4.382;2023-07-20T01:08:51;9.32;;;3.42;;
20069;SDS011;10195;50.868;4.382;2023-07-20T01:11:39;12.10;;;3.67;;
20069;SDS011;10195;50.868;4.382;2023-07-20T01:14:13;9.40;;;3.58;;
20069;SDS011;10195;50.868;4.382;2023-07-20T01:16:40;11.15;;;3.67;;
20069;SDS011;10195;50.868;4.382;2023-07-20T01:19:06;12.32;;;3.40;;
20069;SDS011;10195;50.868;4.382;2023-07-20T01:21:38;8.80;;;4.10;;
20069;SDS011;10195;50.868;4.382;2023-07-20T01:24:15;13.93;;;4.43;;
20069;SDS011;10195;50.868;4.382;2023-07-20T01:33:11;11.25;;;3.88;;
20069;SDS011;10195;50.868;4.382;2023-07-20T01:35:38;14.63;;;4.03;;
20069;SDS011;10195;50.868;4.382;2023-07-20T01:38:08;13.65;;;4.07;;
20069;SDS011;10195;50.868;4.382;2023-07-20T01:40:36;11.27;;;4.60;;
20069;SDS011;10195;50.868;4.382;2023-07-20T01:43:02;9.50;;;4.53;;
20069;SDS011;10195;50.868;4.382;2023-07-20T01:45:28;12.10;;;4.57;;
20069;SDS011;10195;50.868;4.382;2023-07-20T01:47:53;8.23;;;3.90;;
20069;SDS011;10195;50.868;4.382;2023-07-20T01:50:19;11.30;;;4.30;;
20069;SDS011;10195;50.868;4.382;2023-07-20T01:52:45;11.95;;;4.07;;
20069;SDS011;10195;50.868;4.382;2023-07-20T01:55:10;12.93;;;4.95;;
20069;SDS011;10195;50.868;4.382;2023-07-20T01:57:36;13.20;;;5.07;;
20069;SDS011;10195;50.868;4.382;2023-07-20T02:00:02;11.63;;;4.95;;
20069;SDS011;10195;50.868;4.382;2023-07-20T02:02:28;16.88;;;5.05;;
20069;SDS011;10195;50.868;4.382;2023-07-20T02:04:54;17.80;;;6.90;;
20069;SDS011;10195;50.868;4.382;2023-07-20T02:07:20;19.55;;;6.40;;
20069;SDS011;10195;50.868;4.382;2023-07-20T02:09:45;17.60;;;5.55;;
20069;SDS011;10195;50.868;4.382;2023-07-20T02:12:11;17.20;;;6.40;;
20069;SDS011;10195;50.868;4.382;2023-07-20T02:14:36;19.63;;;5.85;;
20069;SDS011;10195;50.868;4.382;2023-07-20T02:17:02;15.30;;;6.75;;
20069;SDS011;10195;50.868;4.382;2023-07-20T02:19:29;16.83;;;6.93;;
20069;SDS011;10195;50.868;4.382;2023-07-20T02:21:55;18.45;;;6.63;;
20069;SDS011;10195;50.868;4.382;2023-07-20T02:24:20;12.30;;;5.65;;
20069;SDS011;10195;50.868;4.382;2023-07-20T02:26:46;13.60;;;5.90;;
20069;SDS011;10195;50.868;4.382;2023-07-20T02:29:12;12.75;;;6.22;;
20069;SDS011;10195;50.868;4.382;2023-07-20T02:31:37;11.68;;;6.18;;
20069;SDS011;10195;50.868;4.382;2023-07-20T02:34:04;15.00;;;6.57;;
20069;SDS011;10195;50.868;4.382;2023-07-20T02:36:30;17.90;;;6.50;;
20069;SDS011;10195;50.868;4.382;2023-07-20T02:38:58;18.25;;;6.95;;
20069;SDS011;10195;50.868;4.382;2023-07-20T02:41:24;13.57;;;6.38;;
20069;SDS011;10195;50.868;4.382;2023-07-20T02:43:49;19.23;;;6.97;;
20069;SDS011;10195;50.868;4.382;2023-07-20T02:46:15;13.35;;;6.57;;
20069;SDS011;10195;50.868;4.382;2023-07-20T02:48:41;16.77;;;6.80;;
20069;SDS011;10195;50.868;4.382;2023-07-20T02:51:06;16.98;;;7.38;;
20069;SDS011;10195;50.868;4.382;2023-07-20T02:53:32;14.57;;;6.88;;
20069;SDS011;10195;50.868;4.382;2023-07-20T02:55:58;13.75;;;6.72;;
20069;SDS011;10195;50.868;4.382;2023-07-20T02:58:24;17.88;;;7.20;;
20069;SDS011;10195;50.868;4.382;2023-07-20T03:00:50;15.25;;;7.32;;
20069;SDS011;10195;50.868;4.382;2023-07-20T03:03:15;17.13;;;7.50;;
20069;SDS011;10195;50.868;4.382;2023-07-20T03:05:41;16.30;;;7.53;;
20069;SDS011;10195;50.868;4.382;2023-07-20T03:08:07;21.50;;;7.80;;
20069;SDS011;10195;50.868;4.382;2023-07-20T03:10:38;21.38;;;8.25;;
20069;SDS011;10195;50.868;4.382;2023-07-20T03:13:06;23.02;;;8.07;;
20069;SDS011;10195;50.868;4.382;2023-07-20T03:15:32;17.33;;;8.20;;
20069;SDS011;10195;50.868;4.382;2023-07-20T03:17:59;15.90;;;7.97;;
20069;SDS011;10195;50.868;4.382;2023-07-20T03:20:24;17.70;;;7.75;;
20069;SDS011;10195;50.868;4.382;2023-07-20T03:22:50;22.42;;;8.27;;
20069;SDS011;10195;50.868;4.382;2023-07-20T03:25:16;20.52;;;8.18;;
20069;SDS011;10195;50.868;4.382;2023-07-20T03:27:42;17.38;;;9.05;;
20069;SDS011;10195;50.868;4.382;2023-07-20T03:30:08;20.45;;;8.80;;
20069;SDS011;10195;50.868;4.382;2023-07-20T03:32:35;23.77;;;9.65;;
20069;SDS011;10195;50.868;4.382;2023-07-20T03:35:00;16.35;;;8.48;;
20069;SDS011;10195;50.868;4.382;2023-07-20T03:37:26;24.30;;;9.75;;
20069;SDS011;10195;50.868;4.382;2023-07-20T03:39:52;15.65;;;9.15;;
20069;SDS011;10195;50.868;4.382;2023-07-20T03:42:18;18.90;;;9.75;;
20069;SDS011;10195;50.868;4.382;2023-07-20T03:44:43;23.25;;;10.40;;
20069;SDS011;10195;50.868;4.382;2023-07-20T03:47:09;23.35;;;10.52;;
20069;SDS011;10195;50.868;4.382;2023-07-20T03:49:35;23.33;;;11.23;;
20069;SDS011;10195;50.868;4.382;2023-07-20T03:52:01;21.73;;;10.43;;
20069;SDS011;10195;50.868;4.382;2023-07-20T03:54:29;19.70;;;11.15;;
20069;SDS011;10195;50.868;4.382;2023-07-20T03:56:55;19.65;;;10.32;;
20069;SDS011;10195;50.868;4.382;2023-07-20T03:59:20;21.77;;;11.23;;
20069;SDS011;10195;50.868;4.382;2023-07-20T04:01:46;19.13;;;10.13;;
20069;SDS011;10195;50.868;4.382;2023-07-20T04:04:13;23.70;;;10.98;;
20069;SDS011;10195;50.868;4.382;2023-07-20T04:06:40;19.45;;;10.43;;
20069;SDS011;10195;50.868;4.382;2023-07-20T04:09:09;21.77;;;10.40;;
20069;SDS011;10195;50.868;4.382;2023-07-20T04:11:36;20.40;;;10.68;;
20069;SDS011;10195;50.868;4.382;2023-07-20T04:14:01;19.65;;;9.85;;
20069;SDS011;10195;50.868;4.382;2023-07-20T04:16:27;24.58;;;10.32;;
20069;SDS011;10195;50.868;4.382;2023-07-20T04:18:54;20.27;;;10.60;;
20069;SDS011;10195;50.868;4.382;2023-07-20T04:21:21;17.65;;;9.60;;
20069;SDS011;10195;50.868;4.382;2023-07-20T04:23:47;17.95;;;10.20;;
20069;SDS011;10195;50.868;4.382;2023-07-20T04:26:12;20.25;;;9.32;;
20069;SDS011;10195;50.868;4.382;2023-07-20T04:28:39;22.50;;;10.45;;
20069;SDS011;10195;50.868;4.382;2023-07-20T04:31:13;20.63;;;9.70;;
20069;SDS011;10195;50.868;4.382;2023-07-20T04:33:40;17.35;;;10.20;;
20069;SDS011;10195;50.868;4.382;2023-07-20T04:36:05;24.07;;;11.07;;
20069;SDS011;10195;50.868;4.382;2023-07-20T04:38:32;21.60;;;10.52;;
20069;SDS011;10195;50.868;4.382;2023-07-20T04:40:58;18.33;;;10.10;;
20069;SDS011;10195;50.868;4.382;2023-07-20T04:43:23;18.50;;;10.45;;
20069;SDS011;10195;50.868;4.382;2023-07-20T04:45:49;16.75;;;10.13;;
20069;SDS011;10195;50.868;4.382;2023-07-20T04:48:15;17.80;;;10.18;;
20069;SDS011;10195;50.868;4.382;2023-07-20T04:50:43;21.33;;;10.80;;
20069;SDS011;10195;50.868;4.382;2023-07-20T04:53:10;17.52;;;10.10;;
20069;SDS011;10195;50.868;4.382;2023-07-20T04:55:39;17.05;;;10.73;;
20069;SDS011;10195;50.868;4.382;2023-07-20T04:58:05;20.15;;;10.60;;
20069;SDS011;10195;50.868;4.382;2023-07-20T05:00:32;19.27;;;10.40;;
20069;SDS011;10195;50.868;4.382;2023-07-20T05:02:58;18.00;;;9.80;;
20069;SDS011;10195;50.868;4.382;2023-07-20T05:05:24;17.77;;;10.20;;
20069;SDS011;10195;50.868;4.382;2023-07-20T05:07:50;18.38;;;10.73;;
20069;SDS011;10195;50.868;4.382;2023-07-20T05:10:15;17.92;;;10.48;;
20069;SDS011;10195;50.868;4.382;2023-07-20T05:12:41;19.23;;;10.25;;
20069;SDS011;10195;50.868;4.382;2023-07-20T05:15:07;18.02;;;10.00;;
20069;SDS011;10195;50.868;4.382;2023-07-20T05:17:33;16.27;;;10.40;;
20069;SDS011;10195;50.868;4.382;2023-07-20T05:19:58;16.08;;;9.32;;
20069;SDS011;10195;50.868;4.382;2023-07-20T05:22:24;15.20;;;9.27;;
20069;SDS011;10195;50.868;4.382;2023-07-20T05:24:50;17.85;;;9.50;;
20069;SDS011;10195;50.868;4.382;2023-07-20T05:27:16;17.33;;;10.32;;
20069;SDS011;10195;50.868;4.382;2023-07-20T05:29:45;17.23;;;10.20;;
20069;SDS011;10195;50.868;4.382;2023-07-20T05:32:11;15.57;;;9.85;;
20069;SDS011;10195;50.868;4.382;2023-07-20T05:34:38;13.90;;;9.05;;
20069;SDS011;10195;50.868;4.382;2023-07-20T05:37:03;17.42;;;9.43;;
20069;SDS011;10195;50.868;4.382;2023-07-20T05:39:29;15.85;;;9.50;;
20069;SDS011;10195;50.868;4.382;2023-07-20T05:41:57;18.35;;;9.55;;
20069;SDS011;10195;50.868;4.382;2023-07-20T05:44:22;14.20;;;9.32;;
20069;SDS011;10195;50.868;4.382;2023-07-20T05:46:48;13.90;;;8.82;;
20069;SDS011;10195;50.868;4.382;2023-07-20T05:49:13;17.67;;;9.27;;
20069;SDS011;10195;50.868;4.382;2023-07-20T05:51:39;15.48;;;9.13;;
20069;SDS011;10195;50.868;4.382;2023-07-20T05:54:05;16.70;;;9.38;;
20069;SDS011;10195;50.868;4.382;2023-07-20T05:56:31;15.07;;;8.65;;
20069;SDS011;10195;50.868;4.382;2023-07-20T05:58:57;16.10;;;8.82;;
20069;SDS011;10195;50.868;4.382;2023-07-20T06:01:22;21.23;;;8.90;;
20069;SDS011;10195;50.868;4.382;2023-07-20T06:03:51;19.08;;;9.10;;
20069;SDS011;10195;50.868;4.382;2023-07-20T06:06:17;14.93;;;8.38;;
20069;SDS011;10195;50.868;4.382;2023-07-20T06:08:43;13.77;;;7.70;;
20069;SDS011;10195;50.868;4.382;2023-07-20T06:11:08;10.13;;;7.57;;
20069;SDS011;10195;50.868;4.382;2023-07-20T06:13:35;11.80;;;7.38;;
20069;SDS011;10195;50.868;4.382;2023-07-20T06:16:00;8.63;;;6.10;;
20069;SDS011;10195;50.868;4.382;2023-07-20T06:18:26;8.43;;;5.00;;
20069;SDS011;10195;50.868;4.382;2023-07-20T06:20:52;12.05;;;6.03;;
20069;SDS011;10195;50.868;4.382;2023-07-20T06:23:19;9.27;;;5.85;;
20069;SDS011;10195;50.868;4.382;2023-07-20T06:25:45;18.40;;;6.90;;
20069;SDS011;10195;50.868;4.382;2023-07-20T06:28:11;11.82;;;6.03;;
20069;SDS011;10195;50.868;4.382;2023-07-20T06:30:37;7.70;;;5.28;;
20069;SDS011;10195;50.868;4.382;2023-07-20T06:33:02;9.80;;;5.70;;
20069;SDS011;10195;50.868;4.382;2023-07-20T06:35:28;8.10;;;5.93;;
20069;SDS011;10195;50.868;4.382;2023-07-20T06:37:54;9.90;;;6.15;;
20069;SDS011;10195;50.868;4.382;2023-07-20T06:40:19;9.00;;;5.38;;
20069;SDS011;10195;50.868;4.382;2023-07-20T06:42:46;9.73;;;4.72;;
20069;SDS011;10195;50.868;4.382;2023-07-20T06:45:11;7.82;;;5.10;;
20069;SDS011;10195;50.868;4.382;2023-07-20T06:47:38;10.15;;;5.05;;
20069;SDS011;10195;50.868;4.382;2023-07-20T06:50:07;13.07;;;5.95;;
20069;SDS011;10195;50.868;4.382;2023-07-20T06:52:34;7.00;;;4.80;;
20069;SDS011;10195;50.868;4.382;2023-07-20T06:54:59;5.80;;;4.38;;
20069;SDS011;10195;50.868;4.382;2023-07-20T06:57:25;7.65;;;3.45;;
20069;SDS011;10195;50.868;4.382;2023-07-20T06:59:51;5.20;;;3.78;;
20069;SDS011;10195;50.868;4.382;2023-07-20T07:02:18;7.03;;;3.88;;
20069;SDS011;10195;50.868;4.382;2023-07-20T07:04:44;6.95;;;3.92;;
20069;SDS011;10195;50.868;4.382;2023-07-20T07:07:11;8.38;;;4.00;;
20069;SDS011;10195;50.868;4.382;2023-07-20T07:09:40;6.38;;;3.70;;
20069;SDS011;10195;50.868;4.382;2023-07-20T07:12:06;8.50;;;4.00;;
20069;SDS011;10195;50.868;4.382;2023-07-20T07:14:32;7.35;;;3.65;;
20069;SDS011;10195;50.868;4.382;2023-07-20T07:16:58;7.18;;;3.15;;
20069;SDS011;10195;50.868;4.382;2023-07-20T07:19:24;4.57;;;2.80;;
20069;SDS011;10195;50.868;4.382;2023-07-20T07:21:50;3.45;;;2.92;;
20069;SDS011;10195;50.868;4.382;2023-07-20T07:24:16;4.45;;;2.38;;
20069;SDS011;10195;50.868;4.382;2023-07-20T07:26:42;2.67;;;2.17;;
20069;SDS011;10195;50.868;4.382;2023-07-20T07:29:07;3.45;;;2.08;;
20069;SDS011;10195;50.868;4.382;2023-07-20T07:31:34;5.60;;;1.90;;
20069;SDS011;10195;50.868;4.382;2023-07-20T07:34:01;2.42;;;1.88;;
20069;SDS011;10195;50.868;4.382;2023-07-20T07:36:27;2.80;;;1.05;;
20069;SDS011;10195;50.868;4.382;2023-07-20T07:38:53;2.45;;;1.23;;
20069;SDS011;10195;50.868;4.382;2023-07-20T07:41:18;3.70;;;1.10;;
20069;SDS011;10195;50.868;4.382;2023-07-20T07:43:45;3.40;;;1.20;;
20069;SDS011;10195;50.868;4.382;2023-07-20T07:46:11;1.35;;;1.08;;
20069;SDS011;10195;50.868;4.382;2023-07-20T07:48:37;1.30;;;1.20;;
20069;SDS011;10195;50.868;4.382;2023-07-20T07:51:02;2.50;;;1.15;;
20069;SDS011;10195;50.868;4.382;2023-07-20T07:53:28;4.93;;;1.08;;
20069;SDS011;10195;50.868;4.382;2023-07-20T07:55:54;2.40;;;1.38;;
20069;SDS011;10195;50.868;4.382;2023-07-20T07:58:20;3.88;;;1.58;;
20069;SDS011;10195;50.868;4.382;2023-07-20T08:00:46;1.63;;;1.30;;
20069;SDS011;10195;50.868;4.382;2023-07-20T08:03:13;3.65;;;1.13;;
20069;SDS011;10195;50.868;4.382;2023-07-20T08:05:38;3.78;;;1.05;;
20069;SDS011;10195;50.868;4.382;2023-07-20T08:08:04;4.68;;;1.17;;
20069;SDS011;10195;50.868;4.382;2023-07-20T08:10:30;3.28;;;1.60;;
20069;SDS011;10195;50.868;4.382;2023-07-20T08:12:56;3.03;;;1.30;;
20069;SDS011;10195;50.868;4.382;2023-07-20T08:15:22;3.20;;;1.38;;
20069;SDS011;10195;50.868;4.382;2023-07-20T08:17:48;3.50;;;1.45;;
20069;SDS011;10195;50.868;4.382;2023-07-20T08:20:16;4.28;;;1.33;;
20069;SDS011;10195;50.868;4.382;2023-07-20T08:22:43;2.75;;;1.20;;
20069;SDS011;10195;50.868;4.382;2023-07-20T08:25:08;2.97;;;1.50;;
20069;SDS011;10195;50.868;4.382;2023-07-20T08:27:35;3.28;;;1.40;;
20069;SDS011;10195;50.868;4.382;2023-07-20T08:30:04;5.53;;;1.52;;
20069;SDS011;10195;50.868;4.382;2023-07-20T08:32:30;2.25;;;1.10;;
20069;SDS011;10195;50.868;4.382;2023-07-20T08:34:57;2.08;;;1.00;;
20069;SDS011;10195;50.868;4.382;2023-07-20T08:37:23;2.05;;;1.00;;
20069;SDS011;10195;50.868;4.382;2023-07-20T08:39:49;2.80;;;1.20;;
20069;SDS011;10195;50.868;4.382;2023-07-20T08:42:15;2.40;;;0.90;;
20069;SDS011;10195;50.868;4.382;2023-07-20T08:44:42;1.92;;;0.95;;
20069;SDS011;10195;50.868;4.382;2023-07-20T08:47:09;1.10;;;0.80;;
20069;SDS011;10195;50.868;4.382;2023-07-20T08:49:37;2.83;;;0.90;;
20069;SDS011;10195;50.868;4.382;2023-07-20T08:52:05;1.42;;;0.85;;
20069;SDS011;10195;50.868;4.382;2023-07-20T08:54:31;2.05;;;0.80;;
20069;SDS011;10195;50.868;4.382;2023-07-20T08:57:04;3.45;;;0.90;;
20069;SDS011;10195;50.868;4.382;2023-07-20T08:59:31;1.33;;;0.82;;
20069;SDS011;10195;50.868;4.382;2023-07-20T09:02:00;1.90;;;0.80;;
20069;SDS011;10195;50.868;4.382;2023-07-20T09:04:27;3.22;;;0.90;;
20069;SDS011;10195;50.868;4.382;2023-07-20T09:06:52;2.38;;;0.88;;
20069;SDS011;10195;50.868;4.382;2023-07-20T09:09:18;1.05;;;0.70;;
20069;SDS011;10195;50.868;4.382;2023-07-20T09:11:47;1.00;;;0.90;;
20069;SDS011;10195;50.868;4.382;2023-07-20T09:14:14;1.48;;;0.68;;
20069;SDS011;10195;50.868;4.382;2023-07-20T09:16:53;2.22;;;0.77;;
20069;SDS011;10195;50.868;4.382;2023-07-20T09:19:20;2.17;;;0.80;;
20069;SDS011;10195;50.868;4.382;2023-07-20T09:21:47;1.85;;;0.90;;
20069;SDS011;10195;50.868;4.382;2023-07-20T09:24:14;1.60;;;0.95;;
20069;SDS011;10195;50.868;4.382;2023-07-20T09:26:41;1.02;;;0.80;;
20069;SDS011;10195;50.868;4.382;2023-07-20T09:29:13;4.38;;;0.90;;
20069;SDS011;10195;50.868;4.382;2023-07-20T09:31:39;1.17;;;0.95;;
20069;SDS011;10195;50.868;4.382;2023-07-20T09:34:05;2.47;;;0.98;;
20069;SDS011;10195;50.868;4.382;2023-07-20T09:36:35;2.83;;;1.20;;
20069;SDS011;10195;50.868;4.382;2023-07-20T09:39:02;1.98;;;1.50;;
20069;SDS011;10195;50.868;4.382;2023-07-20T09:41:29;1.77;;;1.08;;
20069;SDS011;10195;50.868;4.382;2023-07-20T09:43:55;2.55;;;1.20;;
20069;SDS011;10195;50.868;4.382;2023-07-20T09:46:21;2.05;;;1.17;;
20069;SDS011;10195;50.868;4.382;2023-07-20T09:48:53;2.15;;;1.25;;
20069;SDS011;10195;50.868;4.382;2023-07-20T09:51:22;3.13;;;1.40;;
20069;SDS011;10195;50.868;4.382;2023-07-20T09:53:49;5.13;;;1.30;;
20069;SDS011;10195;50.868;4.382;2023-07-20T09:56:19;4.32;;;1.55;;
20069;SDS011;10195;50.868;4.382;2023-07-20T09:58:47;1.33;;;1.02;;
20069;SDS011;10195;50.868;4.382;2023-07-20T10:01:13;1.50;;;1.27;;
20069;SDS011;10195;50.868;4.382;2023-07-20T10:03:45;2.75;;;1.10;;
20069;SDS011;10195;50.868;4.382;2023-07-20T10:06:13;1.65;;;1.00;;
20069;SDS011;10195;50.868;4.382;2023-07-20T10:08:42;5.80;;;1.38;;
20069;SDS011;10195;50.868;4.382;2023-07-20T10:11:11;1.55;;;1.17;;
20069;SDS011;10195;50.868;4.382;2023-07-20T10:13:40;2.00;;;1.30;;
20069;SDS011;10195;50.868;4.382;2023-07-20T10:16:11;2.55;;;1.15;;
20069;SDS011;10195;50.868;4.382;2023-07-20T10:18:53;3.38;;;1.17;;
20069;SDS011;10195;50.868;4.382;2023-07-20T10:21:37;3.15;;;0.93;;
20069;SDS011;10195;50.868;4.382;2023-07-20T10:24:07;1.60;;;1.20;;
20069;SDS011;10195;50.868;4.382;2023-07-20T10:26:34;9.30;;;1.25;;
20069;SDS011;10195;50.868;4.382;2023-07-20T10:29:00;2.13;;;1.10;;
20069;SDS011;10195;50.868;4.382;2023-07-20T10:31:26;0.85;;;0.80;;
20069;SDS011;10195;50.868;4.382;2023-07-20T10:33:54;3.42;;;1.38;;
20069;SDS011;10195;50.868;4.382;2023-07-20T10:36:25;1.73;;;1.00;;
20069;SDS011;10195;50.868;4.382;2023-07-20T10:38:57;1.30;;;1.20;;
20069;SDS011;10195;50.868;4.382;2023-07-20T10:41:34;5.80;;;1.10;;
20069;SDS011;10195;50.868;4.382;2023-07-20T10:44:04;1.75;;;1.27;;
20069;SDS011;10195;50.868;4.382;2023-07-20T10:46:33;4.60;;;1.50;;
20069;SDS011;10195;50.868;4.382;2023-07-20T10:49:05;2.80;;;1.40;;
20069;SDS011;10195;50.868;4.382;2023-07-20T10:51:38;2.13;;;1.20;;
20069;SDS011;10195;50.868;4.382;2023-07-20T10:54:53;3.58;;;1.38;;
20069;SDS011;10195;50.868;4.382;2023-07-20T10:56:55;1.00;;;0.90;;
20069;SDS011;10195;50.868;4.382;2023-07-20T10:59:45;2.08;;;1.17;;
20069;SDS011;10195;50.868;4.382;2023-07-20T11:02:12;2.83;;;1.25;;
20069;SDS011;10195;50.868;4.382;2023-07-20T11:04:38;1.30;;;1.20;;
20069;SDS011;10195;50.868;4.382;2023-07-20T11:07:05;1.58;;;1.10;;
20069;SDS011;10195;50.868;4.382;2023-07-20T11:09:35;2.38;;;1.20;;
20069;SDS011;10195;50.868;4.382;2023-07-20T11:12:12;3.58;;;1.23;;
20069;SDS011;10195;50.868;4.382;2023-07-20T11:14:42;3.95;;;1.35;;
20069;SDS011;10195;50.868;4.382;2023-07-20T11:17:18;4.30;;;0.90;;
20069;SDS011;10195;50.868;4.382;2023-07-20T11:19:48;2.10;;;1.17;;
20069;SDS011;10195;50.868;4.382;2023-07-20T11:22:16;2.00;;;1.25;;
20069;SDS011;10195;50.868;4.382;2023-07-20T11:24:42;3.72;;;1.20;;
20069;SDS011;10195;50.868;4.382;2023-07-20T11:27:08;3.00;;;1.20;;
20069;SDS011;10195;50.868;4.382;2023-07-20T11:29:34;5.40;;;1.20;;
20069;SDS011;10195;50.868;4.382;2023-07-20T11:32:02;2.28;;;1.15;;
20069;SDS011;10195;50.868;4.382;2023-07-20T11:34:29;1.95;;;1.30;;
20069;SDS011;10195;50.868;4.382;2023-07-20T11:36:56;3.35;;;1.52;;
20069;SDS011;10195;50.868;4.382;2023-07-20T11:39:22;1.55;;;1.10;;
20069;SDS011;10195;50.868;4.382;2023-07-20T11:41:54;1.30;;;1.20;;
20069;SDS011;10195;50.868;4.382;2023-07-20T11:44:27;1.23;;;1.08;;
20069;SDS011;10195;50.868;4.382;2023-07-20T11:47:02;8.65;;;1.75;;
20069;SDS011;10195;50.868;4.382;2023-07-20T11:49:30;2.10;;;1.60;;
20069;SDS011;10195;50.868;4.382;2023-07-20T11:52:01;1.92;;;1.20;;
20069;SDS011;10195;50.868;4.382;2023-07-20T11:54:27;2.92;;;1.30;;
20069;SDS011;10195;50.868;4.382;2023-07-20T11:56:54;4.03;;;1.55;;
20069;SDS011;10195;50.868;4.382;2023-07-20T11:59:22;4.65;;;1.10;;
20069;SDS011;10195;50.868;4.382;2023-07-20T12:01:48;2.08;;;1.30;;
20069;SDS011;10195;50.868;4.382;2023-07-20T12:04:14;1.90;;;1.20;;
20069;SDS011;10195;50.868;4.382;2023-07-20T12:06:40;2.35;;;1.40;;
20069;SDS011;10195;50.868;4.382;2023-07-20T12:09:05;1.35;;;1.25;;
20069;SDS011;10195;50.868;4.382;2023-07-20T12:11:38;4.30;;;2.05;;
20069;SDS011;10195;50.868;4.382;2023-07-20T12:14:06;3.17;;;1.55;;
20069;SDS011;10195;50.868;4.382;2023-07-20T12:16:32;1.67;;;1.50;;
20069;SDS011;10195;50.868;4.382;2023-07-20T12:19:03;6.13;;;1.83;;
20069;SDS011;10195;50.868;4.382;2023-07-20T12:21:30;2.53;;;1.52;;
20069;SDS011;10195;50.868;4.382;2023-07-20T12:23:57;3.40;;;2.00;;
20069;SDS011;10195;50.868;4.382;2023-07-20T12:26:23;3.03;;;1.50;;
20069;SDS011;10195;50.868;4.382;2023-07-20T12:28:54;2.22;;;1.70;;
20069;SDS011;10195;50.868;4.382;2023-07-20T12:31:20;3.25;;;1.50;;
20069;SDS011;10195;50.868;4.382;2023-07-20T12:33:48;4.72;;;1.65;;
20069;SDS011;10195;50.868;4.382;2023-07-20T12:36:14;1.70;;;1.60;;
20069;SDS011;10195;50.868;4.382;2023-07-20T12:38:40;1.88;;;1.15;;
20069;SDS011;10195;50.868;4.382;2023-07-20T12:41:07;3.08;;;1.58;;
20069;SDS011;10195;50.868;4.382;2023-07-20T12:43:34;2.72;;;1.70;;
20069;SDS011;10195;50.868;4.382;2023-07-20T12:46:00;1.65;;;1.55;;
20069;SDS011;10195;50.868;4.382;2023-07-20T12:48:26;1.92;;;1.65;;
20069;SDS011;10195;50.868;4.382;2023-07-20T12:50:51;3.00;;;1.80;;
20069;SDS011;10195;50.868;4.382;2023-07-20T12:53:17;4.03;;;1.52;;
20069;SDS011;10195;50.868;4.382;2023-07-20T12:55:43;1.92;;;1.50;;
20069;SDS011;10195;50.868;4.382;2023-07-20T12:58:09;4.40;;;1.80;;
20069;SDS011;10195;50.868;4.382;2023-07-20T13:00:36;2.72;;;1.60;;
20069;SDS011;10195;50.868;4.382;2023-07-20T13:03:02;2.90;;;1.88;;
20069;SDS011;10195;50.868;4.382;2023-07-20T13:05:31;3.92;;;2.03;;
20069;SDS011;10195;50.868;4.382;2023-07-20T13:07:57;3.63;;;1.80;;
20069;SDS011;10195;50.868;4.382;2023-07-20T13:10:23;3.95;;;2.17;;
20069;SDS011;10195;50.868;4.382;2023-07-20T13:12:49;2.00;;;1.67;;
20069;SDS011;10195;50.868;4.382;2023-07-20T13:15:16;2.17;;;1.50;;
20069;SDS011;10195;50.868;4.382;2023-07-20T13:17:42;2.63;;;1.55;;
20069;SDS011;10195;50.868;4.382;2023-07-20T13:20:08;3.20;;;1.65;;
20069;SDS011;10195;50.868;4.382;2023-07-20T13:22:36;3.55;;;1.58;;
20069;SDS011;10195;50.868;4.382;2023-07-20T13:25:02;2.05;;;1.60;;
20069;SDS011;10195;50.868;4.382;2023-07-20T13:27:28;1.75;;;1.63;;
20069;SDS011;10195;50.868;4.382;2023-07-20T13:29:55;2.10;;;1.52;;
20069;SDS011;10195;50.868;4.382;2023-07-20T13:32:21;2.00;;;1.70;;
20069;SDS011;10195;50.868;4.382;2023-07-20T13:34:47;3.28;;;1.63;;
20069;SDS011;10195;50.868;4.382;2023-07-20T13:37:13;5.40;;;1.60;;
20069;SDS011;10195;50.868;4.382;2023-07-20T13:39:39;5.57;;;1.80;;
20069;SDS011;10195;50.868;4.382;2023-07-20T13:42:05;2.78;;;1.65;;
20069;SDS011;10195;50.868;4.382;2023-07-20T13:44:31;3.00;;;1.70;;
20069;SDS011;10195;50.868;4.382;2023-07-20T13:46:57;3.60;;;1.90;;
20069;SDS011;10195;50.868;4.382;2023-07-20T13:49:23;4.05;;;2.10;;
20069;SDS011;10195;50.868;4.382;2023-07-20T13:51:49;1.83;;;1.70;;
20069;SDS011;10195;50.868;4.382;2023-07-20T13:54:15;3.35;;;1.80;;
20069;SDS011;10195;50.868;4.382;2023-07-20T13:56:40;3.85;;;1.75;;
20069;SDS011;10195;50.868;4.382;2023-07-20T13:59:06;3.70;;;2.30;;
20069;SDS011;10195;50.868;4.382;2023-07-20T14:01:32;3.90;;;1.98;;
20069;SDS011;10195;50.868;4.382;2023-07-20T14:03:59;2.20;;;1.70;;
20069;SDS011;10195;50.868;4.382;2023-07-20T14:06:25;3.38;;;1.83;;
20069;SDS011;10195;50.868;4.382;2023-07-20T14:08:51;3.70;;;1.80;;
20069;SDS011;10195;50.868;4.382;2023-07-20T14:11:18;4.40;;;1.80;;
20069;SDS011;10195;50.868;4.382;2023-07-20T14:13:44;3.67;;;1.67;;
20069;SDS011;10195;50.868;4.382;2023-07-20T14:16:09;2.08;;;1.88;;
20069;SDS011;10195;50.868;4.382;2023-07-20T14:18:35;4.72;;;1.80;;
20069;SDS011;10195;50.868;4.382;2023-07-20T14:21:01;3.17;;;1.73;;
20069;SDS011;10195;50.868;4.382;2023-07-20T14:23:28;3.65;;;1.65;;
20069;SDS011;10195;50.868;4.382;2023-07-20T14:25:54;2.60;;;1.73;;
20069;SDS011;10195;50.868;4.382;2023-07-20T14:28:20;2.22;;;1.80;;
20069;SDS011;10195;50.868;4.382;2023-07-20T14:30:46;2.63;;;1.80;;
20069;SDS011;10195;50.868;4.382;2023-07-20T14:33:12;3.88;;;2.17;;
20069;SDS011;10195;50.868;4.382;2023-07-20T14:35:37;5.55;;;1.60;;
20069;SDS011;10195;50.868;4.382;2023-07-20T14:38:03;6.90;;;2.47;;
20069;SDS011;10195;50.868;4.382;2023-07-20T14:40:29;5.63;;;1.60;;
20069;SDS011;10195;50.868;4.382;2023-07-20T14:42:58;3.33;;;1.60;;
20069;SDS011;10195;50.868;4.382;2023-07-20T14:45:26;2.70;;;1.55;;
20069;SDS011;10195;50.868;4.382;2023-07-20T14:47:52;4.72;;;1.55;;